Stoddard, Idaho
Current Conditions -  °F | °C
As of 9:55 PM on Wednesday 22 Oct 2014 (Local Time) from KMAN Reporting Station
Overcast Overcast  
Wind Chill: 57°   Ceiling: 6500
Heat Index: 57°   Visibility: 10mi
Dew Point: 34°   Wind: 9mph
Humidity: 41%   Direction: 200°SSW
Pressure: 30.01"   Gusts: NA
Location:  43.3697°N, 116.52°W
Report Text: KMAN 230355Z AUTO 20008KT 10SM FEW050 BKN065 OVC070 14/01 A3001 RMK AO1
Loading
Personal Weather Stations






























Interactive Weather Map
Tropical Storm Tracking
New forecast layout! Learn more

10-Day Weather Forecast

Advertisements
Track Severe Weather on mobile